Terminal Aerodrome Forecast
Issued by NWS Mt. Holly, NJ

Home | Current Version | Previous Version | Text Only | Print | Product List | Glossary On
Versions: 1 2 3 4 5 6 7 8 9 10 11 12 13 14 15 16 17 18 19 20 21 22 23 24
000
FTUS41 KPHI 152300
TAFRDG
TAF
KRDG 152329Z 1600/1624 VRB02KT P6SM BKN200
     FM160600 VRB02KT P6SM BKN120
      TEMPO 1609/1610 -SHRA
     FM161000 32005KT P6SM BKN040
      TEMPO 1610/1612 -SHRA
     FM161500 34008KT P6SM SCT050=

USA.gov is the U.S. government's official web portal to all federal, state and local government web resources and services.